createdAt,value
2019-03-17T00:01:25.236Z,10.98
2019-03-17T00:02:59.578Z,10.70
2019-03-17T00:04:33.866Z,11.35
2019-03-17T00:06:08.158Z,10.58
2019-03-17T00:07:42.427Z,8.40
2019-03-17T00:09:16.649Z,6.97
2019-03-17T00:10:52.651Z,7.35
2019-03-17T00:12:26.753Z,6.67
2019-03-17T00:14:00.961Z,6.35
2019-03-17T00:15:35.292Z,6.00
2019-03-17T00:17:09.513Z,5.92
2019-03-17T00:18:43.797Z,5.35
2019-03-17T00:20:18.020Z,4.87
2019-03-17T00:21:52.358Z,3.90
2019-03-17T00:23:26.649Z,5.12
2019-03-17T00:25:09.320Z,5.05
2019-03-17T00:26:36.744Z,8.40
2019-03-17T00:28:10.990Z,7.22
2019-03-17T00:29:45.273Z,7.20
2019-03-17T00:31:24.175Z,9.83
2019-03-17T00:32:55.453Z,13.50
2019-03-17T00:34:29.784Z,15.72
2019-03-17T00:36:04.031Z,10.75
2019-03-17T00:37:38.257Z,13.85
2019-03-17T00:39:12.602Z,11.85
2019-03-17T00:40:46.989Z,9.75
2019-03-17T00:42:21.294Z,9.13
2019-03-17T00:43:55.638Z,8.58
2019-03-17T00:45:29.834Z,5.28
2019-03-17T00:47:04.076Z,7.15
2019-03-17T00:48:38.284Z,9.88
2019-03-17T00:50:12.878Z,12.88
2019-03-17T00:51:47.162Z,10.00
2019-03-17T00:53:21.847Z,7.62
2019-03-17T00:54:56.115Z,8.68
2019-03-17T00:56:30.368Z,6.37
2019-03-17T00:58:04.616Z,4.37
2019-03-17T00:59:38.822Z,5.95
2019-03-17T01:01:13.035Z,5.58
2019-03-17T01:02:47.352Z,5.78
2019-03-17T01:04:21.587Z,7.78
2019-03-17T01:05:55.807Z,9.03
2019-03-17T01:07:30.319Z,7.72
2019-03-17T01:09:05.745Z,6.75
2019-03-17T01:10:39.956Z,6.47
2019-03-17T01:12:14.156Z,7.55
2019-03-17T01:13:48.384Z,6.53
2019-03-17T01:15:22.624Z,5.72
2019-03-17T01:16:56.905Z,4.30
2019-03-17T01:18:31.153Z,4.47
2019-03-17T01:20:08.029Z,3.85
2019-03-17T01:21:42.327Z,4.28
2019-03-17T01:23:16.626Z,5.03
2019-03-17T01:24:50.887Z,3.58
2019-03-17T01:26:25.073Z,2.10
2019-03-17T01:27:59.318Z,2.58
2019-03-17T01:29:33.469Z,2.22
2019-03-17T01:31:07.767Z,2.47
2019-03-17T01:32:41.962Z,2.75
2019-03-17T01:34:16.245Z,3.15
2019-03-17T01:35:50.446Z,2.80
2019-03-17T01:37:24.711Z,3.02
2019-03-17T01:38:58.933Z,2.62
2019-03-17T01:40:33.269Z,3.35
2019-03-17T01:42:07.464Z,2.83
2019-03-17T01:43:41.735Z,3.02
2019-03-17T01:45:15.975Z,3.00
2019-03-17T01:46:50.296Z,2.67
2019-03-17T01:48:24.518Z,2.60
2019-03-17T01:49:58.753Z,2.20
2019-03-17T01:51:33.025Z,2.00
2019-03-17T01:53:07.245Z,2.60
2019-03-17T01:54:41.905Z,2.55
2019-03-17T01:56:16.149Z,2.83
2019-03-17T01:57:50.461Z,3.27
2019-03-17T01:59:24.651Z,3.40
2019-03-17T02:00:58.945Z,3.33
2019-03-17T02:02:33.089Z,3.42
2019-03-17T02:04:07.362Z,2.75
2019-03-17T02:05:41.548Z,3.02
2019-03-17T02:07:15.750Z,2.95
2019-03-17T02:08:50.602Z,3.60
2019-03-17T02:10:24.786Z,3.20
2019-03-17T02:11:58.986Z,3.22
2019-03-17T02:13:33.210Z,3.58
2019-03-17T02:15:08.439Z,2.87
2019-03-17T02:16:42.707Z,3.17
2019-03-17T02:18:16.907Z,2.70
2019-03-17T02:19:51.130Z,4.17
2019-03-17T02:21:25.369Z,3.33
2019-03-17T02:22:59.636Z,3.25
2019-03-17T02:24:33.993Z,2.80
2019-03-17T02:26:08.280Z,3.00
2019-03-17T02:27:42.502Z,3.55
2019-03-17T02:29:16.737Z,4.30
2019-03-17T02:30:51.026Z,4.37
2019-03-17T02:32:25.225Z,3.55
2019-03-17T02:33:59.459Z,3.70
2019-03-17T02:35:39.563Z,3.75
2019-03-17T02:37:09.697Z,3.95
2019-03-17T02:38:43.966Z,3.45
2019-03-17T02:40:18.203Z,8.23
2019-03-17T02:41:52.412Z,21.77
2019-03-17T02:43:26.609Z,13.68
2019-03-17T02:45:00.894Z,14.10
2019-03-17T02:46:35.140Z,11.25
2019-03-17T02:48:09.366Z,12.23
2019-03-17T02:49:43.566Z,9.13
2019-03-17T02:51:17.796Z,6.20
2019-03-17T02:52:52.267Z,4.90
2019-03-17T02:54:26.521Z,4.35
2019-03-17T02:56:00.761Z,4.15
2019-03-17T02:57:35.650Z,6.20
2019-03-17T02:59:09.930Z,6.08
2019-03-17T03:00:44.205Z,4.97
2019-03-17T03:02:18.403Z,4.72
2019-03-17T03:03:52.692Z,3.92
2019-03-17T03:05:26.962Z,4.00
2019-03-17T03:07:01.227Z,4.03
2019-03-17T03:08:35.406Z,4.00
2019-03-17T03:10:10.264Z,3.30
2019-03-17T03:11:44.533Z,3.85
2019-03-17T03:13:18.737Z,3.67
2019-03-17T03:14:52.933Z,5.00
2019-03-17T03:16:27.206Z,4.30
2019-03-17T03:18:01.430Z,4.78
2019-03-17T03:19:35.694Z,4.85
2019-03-17T03:21:09.900Z,4.28
2019-03-17T03:22:44.187Z,4.00
2019-03-17T03:24:18.417Z,3.77
2019-03-17T03:25:52.639Z,5.10
2019-03-17T03:27:26.913Z,3.92
2019-03-17T03:29:01.118Z,3.20
2019-03-17T03:30:35.401Z,3.02
2019-03-17T03:32:09.730Z,3.00
2019-03-17T03:33:43.976Z,2.95
2019-03-17T03:35:18.163Z,2.60
2019-03-17T03:36:52.463Z,3.52
2019-03-17T03:38:26.794Z,2.90
2019-03-17T03:40:00.671Z,3.60
2019-03-17T03:41:35.663Z,3.35
2019-03-17T03:43:09.873Z,3.20
2019-03-17T03:44:44.098Z,3.15
2019-03-17T03:46:18.353Z,2.95
2019-03-17T03:47:52.563Z,2.55
2019-03-17T03:49:26.917Z,2.90
2019-03-17T03:51:01.115Z,2.42
2019-03-17T03:52:35.355Z,2.27
2019-03-17T03:54:09.622Z,2.47
2019-03-17T03:55:43.881Z,2.25
2019-03-17T03:57:18.105Z,2.35
2019-03-17T03:58:52.331Z,2.05
2019-03-17T04:00:26.612Z,2.65
2019-03-17T04:02:00.876Z,2.20
2019-03-17T04:03:35.116Z,2.20
2019-03-17T04:05:09.402Z,2.25
2019-03-17T04:06:43.631Z,1.90
2019-03-17T04:08:17.872Z,2.62
2019-03-17T04:09:52.092Z,1.90
2019-03-17T04:11:26.567Z,2.12
2019-03-17T04:13:00.857Z,2.40
2019-03-17T04:14:35.092Z,2.10
2019-03-17T04:16:09.327Z,2.33
2019-03-17T04:17:43.533Z,2.50
2019-03-17T04:19:17.740Z,2.80
2019-03-17T04:20:52.029Z,3.27
2019-03-17T04:22:26.299Z,2.92
2019-03-17T04:24:00.522Z,13.88
2019-03-17T04:25:34.736Z,9.10
2019-03-17T04:27:09.107Z,10.55
2019-03-17T04:28:46.239Z,12.23
2019-03-17T04:30:20.458Z,11.45
2019-03-17T04:31:54.770Z,3.72
2019-03-17T04:33:28.997Z,7.50
2019-03-17T04:35:03.825Z,7.50
2019-03-17T04:36:40.790Z,5.33
2019-03-17T04:38:15.110Z,3.55
2019-03-17T04:39:49.431Z,3.30
2019-03-17T04:41:23.703Z,3.12
2019-03-17T04:42:58.242Z,3.12
2019-03-17T04:44:32.506Z,2.72
2019-03-17T04:46:06.711Z,3.10
2019-03-17T04:47:40.933Z,3.60
2019-03-17T04:49:15.206Z,3.60
2019-03-17T04:50:49.466Z,5.35
2019-03-17T04:52:23.673Z,7.70
2019-03-17T04:53:57.905Z,9.58
2019-03-17T04:55:32.169Z,6.87
2019-03-17T04:57:08.677Z,6.90
2019-03-17T04:58:42.992Z,3.90
2019-03-17T05:00:17.789Z,4.25
2019-03-17T05:01:52.001Z,4.50
2019-03-17T05:03:26.308Z,4.90
2019-03-17T05:05:00.547Z,6.10
2019-03-17T05:06:34.738Z,5.50
2019-03-17T05:08:08.965Z,4.67
2019-03-17T05:09:43.161Z,5.42
2019-03-17T05:11:17.412Z,4.35
2019-03-17T05:12:52.146Z,5.10
2019-03-17T05:14:26.339Z,5.25
2019-03-17T05:16:00.533Z,4.72
2019-03-17T05:17:34.324Z,6.13
2019-03-17T05:19:08.534Z,5.67
2019-03-17T05:20:42.763Z,4.80
2019-03-17T05:22:16.949Z,5.28
2019-03-17T05:23:51.260Z,4.78
2019-03-17T05:25:25.549Z,3.70
2019-03-17T05:26:59.744Z,5.17
2019-03-17T05:28:34.025Z,4.15
2019-03-17T05:30:10.828Z,12.35
2019-03-17T05:31:45.030Z,9.75
2019-03-17T05:33:19.348Z,5.50
2019-03-17T05:34:53.570Z,4.45
2019-03-17T05:36:27.835Z,2.83
2019-03-17T05:38:02.141Z,3.47
2019-03-17T05:39:36.445Z,3.35
2019-03-17T05:41:10.730Z,3.33
2019-03-17T05:42:44.981Z,3.12
2019-03-17T05:44:19.314Z,2.85
2019-03-17T05:45:53.497Z,4.00
2019-03-17T05:47:27.722Z,2.45
2019-03-17T05:49:01.935Z,4.75
2019-03-17T05:50:36.166Z,5.85
2019-03-17T05:52:10.493Z,32.90
2019-03-17T05:53:44.697Z,15.65
2019-03-17T05:55:18.989Z,9.45
2019-03-17T05:56:53.273Z,24.95
2019-03-17T05:58:27.611Z,37.75
2019-03-17T06:00:01.931Z,43.33
2019-03-17T06:01:36.203Z,42.62
2019-03-17T06:03:10.410Z,47.98
2019-03-17T06:04:44.627Z,44.18
2019-03-17T06:06:18.873Z,28.98
2019-03-17T06:07:53.116Z,36.68
2019-03-17T06:09:27.527Z,23.15
2019-03-17T06:11:01.740Z,23.52
2019-03-17T06:12:36.038Z,26.97
2019-03-17T06:14:10.674Z,19.82
2019-03-17T06:15:44.966Z,16.40
2019-03-17T06:17:19.309Z,15.75
2019-03-17T06:18:53.522Z,16.87
2019-03-17T06:20:27.813Z,15.75
2019-03-17T06:22:02.126Z,19.35
2019-03-17T06:23:36.458Z,20.05
2019-03-17T06:25:10.755Z,18.87
2019-03-17T06:26:45.041Z,18.37
2019-03-17T06:28:21.561Z,13.60
2019-03-17T06:29:55.262Z,11.57
2019-03-17T06:31:29.570Z,13.05
2019-03-17T06:33:03.817Z,13.85
2019-03-17T06:34:38.049Z,13.50
2019-03-17T06:36:12.276Z,16.42
2019-03-17T06:37:46.544Z,14.80
2019-03-17T06:39:20.803Z,10.13
2019-03-17T06:40:55.008Z,7.58
2019-03-17T06:42:29.223Z,5.45
2019-03-17T06:44:03.481Z,4.45
2019-03-17T06:45:37.795Z,5.70
2019-03-17T06:47:12.279Z,8.45
2019-03-17T06:48:46.507Z,8.03
2019-03-17T06:50:21.826Z,7.03
2019-03-17T06:51:57.714Z,6.70
2019-03-17T06:53:32.020Z,4.70
2019-03-17T06:55:09.491Z,5.47
2019-03-17T06:56:46.366Z,4.97
2019-03-17T06:58:20.607Z,5.10
2019-03-17T06:59:54.861Z,4.65
2019-03-17T07:01:29.143Z,4.90
2019-03-17T07:03:03.371Z,5.30
2019-03-17T07:04:38.134Z,4.67
2019-03-17T07:06:12.427Z,5.10
2019-03-17T07:07:46.689Z,5.15
2019-03-17T07:09:22.233Z,5.35
2019-03-17T07:10:56.468Z,4.55
2019-03-17T07:12:30.676Z,5.00
2019-03-17T07:14:04.930Z,5.80
2019-03-17T07:15:39.448Z,5.55
2019-03-17T07:17:13.733Z,3.72
2019-03-17T07:18:47.966Z,2.55
2019-03-17T07:20:22.240Z,2.30
2019-03-17T07:21:56.492Z,2.30
2019-03-17T07:23:30.777Z,2.37
2019-03-17T07:25:07.272Z,2.50
2019-03-17T07:26:41.451Z,3.33
2019-03-17T07:28:15.691Z,3.83
2019-03-17T07:29:49.889Z,4.03
2019-03-17T07:31:24.158Z,3.00
2019-03-17T07:32:58.360Z,3.58
2019-03-17T07:34:32.592Z,5.22
2019-03-17T07:36:06.863Z,6.50
2019-03-17T07:37:41.149Z,12.07
2019-03-17T07:39:15.374Z,4.58
2019-03-17T07:40:49.594Z,3.17
2019-03-17T07:42:23.828Z,3.58
2019-03-17T07:43:58.068Z,3.95
2019-03-17T07:45:32.288Z,2.65
2019-03-17T07:47:06.504Z,2.70
2019-03-17T07:48:42.849Z,33.00
2019-03-17T07:50:17.212Z,23.57
2019-03-17T07:51:51.442Z,16.55
2019-03-17T07:53:25.711Z,4.10
2019-03-17T07:54:59.939Z,5.28
2019-03-17T07:56:34.216Z,8.95
2019-03-17T07:58:08.520Z,9.08
2019-03-17T07:59:42.784Z,17.92
2019-03-17T08:01:17.106Z,22.02
2019-03-17T08:02:51.445Z,10.65
2019-03-17T08:04:25.665Z,1.87
2019-03-17T08:05:59.888Z,3.25
2019-03-17T08:07:34.098Z,1.77
2019-03-17T08:09:08.909Z,2.30
2019-03-17T08:10:43.169Z,2.47
2019-03-17T08:12:20.183Z,2.37
2019-03-17T08:13:54.420Z,2.33
2019-03-17T08:15:28.603Z,1.87
2019-03-17T08:17:03.121Z,2.42
2019-03-17T08:18:37.344Z,4.65
2019-03-17T08:20:12.691Z,1.67
2019-03-17T08:21:46.899Z,5.05
2019-03-17T08:23:21.121Z,6.37
2019-03-17T08:24:55.419Z,2.33
2019-03-17T08:26:29.729Z,3.12
2019-03-17T08:28:03.949Z,2.67
2019-03-17T08:29:38.216Z,2.22
2019-03-17T08:31:12.452Z,1.90
2019-03-17T08:32:46.745Z,2.27
2019-03-17T08:34:20.975Z,1.50
2019-03-17T08:35:55.256Z,1.37
2019-03-17T08:37:29.536Z,2.40
2019-03-17T08:39:05.310Z,2.85
2019-03-17T08:40:39.513Z,2.67
2019-03-17T08:42:13.850Z,2.95
2019-03-17T08:43:54.224Z,2.12
2019-03-17T08:45:23.989Z,3.05
2019-03-17T08:46:58.280Z,1.70
2019-03-17T08:48:32.580Z,2.65
2019-03-17T08:50:09.587Z,1.60
2019-03-17T08:51:43.792Z,2.70
2019-03-17T08:53:18.092Z,6.05
2019-03-17T08:54:52.354Z,3.33
2019-03-17T08:56:26.645Z,2.50
2019-03-17T08:58:00.930Z,2.08
2019-03-17T08:59:35.184Z,2.02
2019-03-17T09:01:09.466Z,1.75
2019-03-17T09:02:43.759Z,1.75
2019-03-17T09:04:18.041Z,1.50
2019-03-17T09:05:52.276Z,3.52
2019-03-17T09:07:27.835Z,2.00
2019-03-17T09:09:02.695Z,2.83
2019-03-17T09:10:36.914Z,3.33
2019-03-17T09:12:11.135Z,2.47
2019-03-17T09:13:45.452Z,16.10
2019-03-17T09:15:19.674Z,3.70
2019-03-17T09:16:53.961Z,9.10
2019-03-17T09:18:28.510Z,9.65
2019-03-17T09:20:02.773Z,4.15
2019-03-17T09:21:37.013Z,7.92
2019-03-17T09:23:11.293Z,10.58
2019-03-17T09:24:45.480Z,3.83
2019-03-17T09:26:19.697Z,24.40
2019-03-17T09:27:53.932Z,2.08
2019-03-17T09:29:28.178Z,2.33
2019-03-17T09:31:04.786Z,2.30
2019-03-17T09:32:38.349Z,2.40
2019-03-17T09:34:12.569Z,8.30
2019-03-17T09:35:46.838Z,1.77
2019-03-17T09:37:21.115Z,2.22
2019-03-17T09:38:55.345Z,2.37
2019-03-17T09:40:29.629Z,3.10
2019-03-17T09:42:03.917Z,3.10
2019-03-17T09:43:38.221Z,2.87
2019-03-17T09:45:14.101Z,2.87
2019-03-17T09:46:48.296Z,2.62
2019-03-17T09:48:22.510Z,3.08
2019-03-17T09:49:56.751Z,10.10
2019-03-17T09:51:31.018Z,4.42
2019-03-17T09:53:05.906Z,2.80
2019-03-17T09:54:40.124Z,2.92
2019-03-17T09:56:14.394Z,2.30
2019-03-17T09:57:48.670Z,2.08
2019-03-17T09:59:22.882Z,3.33
2019-03-17T10:00:57.109Z,2.72
2019-03-17T10:02:31.311Z,2.37
2019-03-17T10:04:05.602Z,2.05
2019-03-17T10:05:39.818Z,1.85
2019-03-17T10:07:14.054Z,2.90
2019-03-17T10:08:59.531Z,3.47
2019-03-17T10:10:24.359Z,4.37
2019-03-17T10:11:58.565Z,4.08
2019-03-17T10:13:32.842Z,4.65
2019-03-17T10:15:10.278Z,13.53
2019-03-17T10:16:44.545Z,5.87
2019-03-17T10:18:18.756Z,3.72
2019-03-17T10:19:53.407Z,4.10
2019-03-17T10:21:27.643Z,30.85
2019-03-17T10:23:01.861Z,14.53
2019-03-17T10:24:36.130Z,2.55
2019-03-17T10:26:10.462Z,2.85
2019-03-17T10:27:44.787Z,2.72
2019-03-17T10:29:19.045Z,2.50
2019-03-17T10:30:53.249Z,3.35
2019-03-17T10:32:27.451Z,3.25
2019-03-17T10:34:01.762Z,2.70
2019-03-17T10:35:35.970Z,3.12
2019-03-17T10:37:10.245Z,3.50
2019-03-17T10:38:44.550Z,22.10
2019-03-17T10:40:21.058Z,4.83
2019-03-17T10:41:55.319Z,2.83
2019-03-17T10:43:29.642Z,2.40
2019-03-17T10:45:04.945Z,2.52
2019-03-17T10:46:39.149Z,2.12
2019-03-17T10:48:13.393Z,3.27
2019-03-17T10:49:47.665Z,5.37
2019-03-17T10:51:21.909Z,4.45
2019-03-17T10:52:56.134Z,37.40
2019-03-17T10:54:30.373Z,2.85
2019-03-17T10:56:04.731Z,2.52
2019-03-17T10:57:38.994Z,3.22
2019-03-17T10:59:13.213Z,5.97
2019-03-17T11:00:47.399Z,3.37
2019-03-17T11:02:21.717Z,2.55
2019-03-17T11:03:55.917Z,2.70
2019-03-17T11:05:30.708Z,3.20
2019-03-17T11:07:04.965Z,4.05
2019-03-17T11:08:39.210Z,3.52
2019-03-17T11:10:14.590Z,2.40
2019-03-17T11:11:48.848Z,2.77
2019-03-17T11:13:23.115Z,3.55
2019-03-17T11:14:57.315Z,2.80
2019-03-17T11:16:31.537Z,4.03
2019-03-17T11:18:05.845Z,2.62
2019-03-17T11:19:40.208Z,3.05
2019-03-17T11:21:14.916Z,3.22
2019-03-17T11:22:49.184Z,3.60
2019-03-17T11:24:23.474Z,2.77
2019-03-17T11:25:57.703Z,3.30
2019-03-17T11:27:31.921Z,2.92
2019-03-17T11:29:06.187Z,2.50
2019-03-17T11:30:40.410Z,2.17
2019-03-17T11:32:14.630Z,2.58
2019-03-17T11:33:48.838Z,2.55
2019-03-17T11:35:23.093Z,2.77
2019-03-17T11:36:57.300Z,2.70
2019-03-17T11:38:31.508Z,2.83
2019-03-17T11:40:20.029Z,3.20
2019-03-17T11:41:54.371Z,4.53
2019-03-17T11:43:28.571Z,2.52
2019-03-17T11:45:02.781Z,2.83
2019-03-17T11:46:36.985Z,2.27
2019-03-17T11:48:11.262Z,2.30
2019-03-17T11:49:46.282Z,2.80
2019-03-17T11:51:20.710Z,2.52
2019-03-17T11:52:55.081Z,2.47
2019-03-17T11:54:29.377Z,2.37
2019-03-17T11:56:03.673Z,2.20
2019-03-17T11:57:37.988Z,2.52
2019-03-17T11:59:12.291Z,2.42
2019-03-17T12:00:46.615Z,2.52
2019-03-17T12:02:26.356Z,2.72
2019-03-17T12:03:56.875Z,3.20
2019-03-17T12:05:31.170Z,2.37
2019-03-17T12:07:05.429Z,2.42
2019-03-17T12:08:39.649Z,2.70
2019-03-17T12:10:23.816Z,2.52
2019-03-17T12:11:58.020Z,2.77
2019-03-17T12:13:32.325Z,3.00
2019-03-17T12:15:12.694Z,2.72
2019-03-17T12:16:47.013Z,2.45
2019-03-17T12:18:21.925Z,2.60
2019-03-17T12:19:56.146Z,3.05
2019-03-17T12:21:30.659Z,2.65
2019-03-17T12:23:04.959Z,2.87
2019-03-17T12:24:39.170Z,3.08
2019-03-17T12:26:13.380Z,3.40
2019-03-17T12:27:47.739Z,4.00
2019-03-17T12:29:21.944Z,3.87
2019-03-17T12:30:56.178Z,3.22
2019-03-17T12:32:30.379Z,2.62
2019-03-17T12:34:04.663Z,2.30
2019-03-17T12:35:38.937Z,2.30
2019-03-17T12:37:13.218Z,2.30
2019-03-17T12:38:47.418Z,2.52
2019-03-17T12:40:21.677Z,2.15
2019-03-17T12:41:55.963Z,2.60
2019-03-17T12:43:30.177Z,2.72
2019-03-17T12:45:06.381Z,2.60
2019-03-17T12:46:40.706Z,2.62
2019-03-17T12:48:15.839Z,2.85
2019-03-17T12:49:50.086Z,48.42
2019-03-17T12:51:24.453Z,37.30
2019-03-17T12:53:01.555Z,283.20
2019-03-17T12:54:36.924Z,109.30
2019-03-17T12:56:11.154Z,9.85
2019-03-17T12:57:46.140Z,6.22
2019-03-17T12:59:20.449Z,6.45
2019-03-17T13:00:54.678Z,65.10
2019-03-17T13:02:28.982Z,35.63
2019-03-17T13:04:03.293Z,15.45
2019-03-17T13:05:37.570Z,21.93
2019-03-17T13:07:11.865Z,14.28
2019-03-17T13:08:46.080Z,2.90
2019-03-17T13:10:22.383Z,2.27
2019-03-17T13:11:58.400Z,1.98
2019-03-17T13:13:32.681Z,1.92
2019-03-17T13:15:09.595Z,2.98
2019-03-17T13:16:43.847Z,2.33
2019-03-17T13:18:18.091Z,2.92
2019-03-17T13:19:52.406Z,2.35
2019-03-17T13:21:26.598Z,2.12
2019-03-17T13:23:01.388Z,2.10
2019-03-17T13:24:35.696Z,2.15
2019-03-17T13:26:10.384Z,2.50
2019-03-17T13:27:44.915Z,2.17
2019-03-17T13:29:19.117Z,2.05
2019-03-17T13:30:53.305Z,2.50
2019-03-17T13:32:27.554Z,2.37
2019-03-17T13:34:01.774Z,2.30
2019-03-17T13:35:36.089Z,2.00
2019-03-17T13:37:10.317Z,1.75
2019-03-17T13:38:46.846Z,2.08
2019-03-17T13:40:29.574Z,2.30
2019-03-17T13:41:57.479Z,3.00
2019-03-17T13:43:31.706Z,2.05
2019-03-17T13:45:08.630Z,2.25
2019-03-17T13:46:42.910Z,2.60
2019-03-17T13:48:17.102Z,2.17
2019-03-17T13:49:51.432Z,2.10
2019-03-17T13:51:25.703Z,2.25
2019-03-17T13:52:59.916Z,1.90
2019-03-17T13:54:34.150Z,2.80
2019-03-17T13:56:08.410Z,7.97
2019-03-17T13:58:00.322Z,3.90
2019-03-17T13:59:34.613Z,5.33
2019-03-17T14:01:08.904Z,6.25
2019-03-17T14:02:43.106Z,5.22
2019-03-17T14:04:17.982Z,5.17
2019-03-17T14:05:52.434Z,6.78
2019-03-17T14:07:26.745Z,5.20
2019-03-17T14:09:01.064Z,5.37
2019-03-17T14:10:40.850Z,3.67
2019-03-17T14:12:11.307Z,3.20
2019-03-17T14:13:45.586Z,3.67
2019-03-17T14:15:19.880Z,3.50
2019-03-17T14:16:54.100Z,2.62
2019-03-17T14:18:28.447Z,2.90
2019-03-17T14:20:02.827Z,3.58
2019-03-17T14:21:37.036Z,3.85
2019-03-17T14:23:11.907Z,3.27
2019-03-17T14:24:46.225Z,4.35
2019-03-17T14:26:20.458Z,3.65
2019-03-17T14:27:54.774Z,3.67
2019-03-17T14:29:28.930Z,4.75
2019-03-17T14:31:03.186Z,5.28
2019-03-17T14:32:37.495Z,7.45
2019-03-17T14:34:11.814Z,5.17
2019-03-17T14:35:46.146Z,4.37
2019-03-17T14:37:20.378Z,4.72
2019-03-17T14:38:54.639Z,3.80
2019-03-17T14:40:28.908Z,5.08
2019-03-17T14:42:03.208Z,5.90
2019-03-17T14:43:37.496Z,5.83
2019-03-17T14:45:13.971Z,4.35
2019-03-17T14:46:48.240Z,5.47
2019-03-17T14:48:22.462Z,7.87
2019-03-17T14:49:56.753Z,6.92
2019-03-17T14:51:31.038Z,7.03
2019-03-17T14:53:05.329Z,5.50
2019-03-17T14:54:39.589Z,6.00
2019-03-17T14:56:13.869Z,6.20
2019-03-17T14:57:48.153Z,6.22
2019-03-17T14:59:22.490Z,4.97
2019-03-17T15:00:56.738Z,5.22
2019-03-17T15:02:30.932Z,5.90
2019-03-17T15:04:05.158Z,5.92
2019-03-17T15:05:39.383Z,6.67
2019-03-17T15:07:13.624Z,6.03
2019-03-17T15:08:47.928Z,6.72
2019-03-17T15:10:23.616Z,6.55
2019-03-17T15:11:57.881Z,6.47
2019-03-17T15:13:32.237Z,6.33
2019-03-17T15:15:09.413Z,5.97
2019-03-17T15:16:43.652Z,5.53
2019-03-17T15:18:17.864Z,5.65
2019-03-17T15:19:53.720Z,6.37
2019-03-17T15:21:27.954Z,6.37
2019-03-17T15:23:02.209Z,6.53
2019-03-17T15:24:36.727Z,6.22
2019-03-17T15:26:11.016Z,5.53
2019-03-17T15:27:45.283Z,5.58
2019-03-17T15:29:19.621Z,5.50
2019-03-17T15:31:09.812Z,6.92
2019-03-17T15:32:29.788Z,5.85
2019-03-17T15:34:04.009Z,5.47
2019-03-17T15:35:38.237Z,5.25
2019-03-17T15:37:12.576Z,6.08
2019-03-17T15:38:47.061Z,6.15
2019-03-17T15:40:22.291Z,6.87
2019-03-17T15:41:56.578Z,6.90
2019-03-17T15:43:30.912Z,7.80
2019-03-17T15:45:07.992Z,10.00
2019-03-17T15:46:42.297Z,10.60
2019-03-17T15:48:16.590Z,8.33
2019-03-17T15:49:50.882Z,7.92
2019-03-17T15:51:25.179Z,7.35
2019-03-17T15:52:59.446Z,7.25
2019-03-17T15:54:33.651Z,6.60
2019-03-17T15:56:07.996Z,7.28
2019-03-17T15:57:42.284Z,7.50
2019-03-17T15:59:16.602Z,7.37
2019-03-17T16:00:50.851Z,5.90
2019-03-17T16:02:25.177Z,5.80
2019-03-17T16:03:59.473Z,6.05
2019-03-17T16:05:33.753Z,8.30
2019-03-17T16:07:08.033Z,9.28
2019-03-17T16:08:42.306Z,9.70
2019-03-17T16:10:19.487Z,8.53
2019-03-17T16:11:53.693Z,7.45
2019-03-17T16:13:27.996Z,7.53
2019-03-17T16:15:02.360Z,8.90
2019-03-17T16:16:36.573Z,9.88
2019-03-17T16:18:10.934Z,11.60
2019-03-17T16:19:45.233Z,9.70
2019-03-17T16:21:19.496Z,11.33
2019-03-17T16:22:53.790Z,13.45
2019-03-17T16:24:28.057Z,17.50
2019-03-17T16:26:02.536Z,15.25
2019-03-17T16:27:36.834Z,21.05
2019-03-17T16:29:11.192Z,25.75
2019-03-17T16:30:45.442Z,28.92
2019-03-17T16:32:20.524Z,24.50
2019-03-17T16:33:56.040Z,24.02
2019-03-17T16:35:31.986Z,22.52
2019-03-17T16:37:08.772Z,28.70
2019-03-17T16:38:43.118Z,26.55
2019-03-17T16:40:23.626Z,22.32
2019-03-17T16:41:59.001Z,15.93
2019-03-17T16:43:33.301Z,14.33
2019-03-17T16:45:12.892Z,6.47
2019-03-17T16:46:47.251Z,9.23
2019-03-17T16:48:21.538Z,8.48
2019-03-17T16:49:58.785Z,14.63
2019-03-17T16:51:31.833Z,21.37
2019-03-17T16:53:06.141Z,28.60
2019-03-17T16:54:40.392Z,60.55
2019-03-17T16:56:14.624Z,33.98
2019-03-17T16:57:48.835Z,16.87
2019-03-17T16:59:23.214Z,19.02
2019-03-17T17:00:57.501Z,16.60
2019-03-17T17:02:31.809Z,23.32
2019-03-17T17:04:06.107Z,16.05
2019-03-17T17:05:40.459Z,7.58
2019-03-17T17:07:14.697Z,8.00
2019-03-17T17:08:49.056Z,11.03
2019-03-17T17:10:28.067Z,17.35
2019-03-17T17:12:02.898Z,46.08
2019-03-17T17:13:37.095Z,48.45
2019-03-17T17:15:17.260Z,62.35
2019-03-17T17:16:51.569Z,68.80
2019-03-17T17:18:25.795Z,46.75
2019-03-17T17:20:00.165Z,30.50
2019-03-17T17:21:36.119Z,39.33
2019-03-17T17:23:10.324Z,58.42
2019-03-17T17:24:44.649Z,50.40
2019-03-17T17:26:19.443Z,50.08
2019-03-17T17:27:53.760Z,18.32
2019-03-17T17:29:28.003Z,15.00
2019-03-17T17:31:02.309Z,10.10
2019-03-17T17:32:36.595Z,12.13
2019-03-17T17:34:10.959Z,10.48
2019-03-17T17:35:45.247Z,14.50
2019-03-17T17:37:19.457Z,15.00
2019-03-17T17:38:53.720Z,13.08
2019-03-17T17:40:28.488Z,9.65
2019-03-17T17:42:09.017Z,10.03
2019-03-17T17:43:39.356Z,8.40
2019-03-17T17:45:17.396Z,8.48
2019-03-17T17:46:51.400Z,8.20
2019-03-17T17:48:25.746Z,8.55
2019-03-17T17:50:00.003Z,10.98
2019-03-17T17:51:34.312Z,12.13
2019-03-17T17:53:08.605Z,18.75
2019-03-17T17:54:42.855Z,19.95
2019-03-17T17:56:17.222Z,14.87
2019-03-17T17:57:53.206Z,18.23
2019-03-17T17:59:27.703Z,15.50
2019-03-17T18:01:02.017Z,15.83
2019-03-17T18:02:36.330Z,17.92
2019-03-17T18:04:10.651Z,23.05
2019-03-17T18:05:44.974Z,34.88
2019-03-17T18:07:19.288Z,57.75
2019-03-17T18:08:53.571Z,48.25
2019-03-17T18:10:27.915Z,48.05
2019-03-17T18:12:02.222Z,38.58
2019-03-17T18:13:36.578Z,18.82
2019-03-17T18:15:19.674Z,13.55
2019-03-17T18:16:53.977Z,13.28
2019-03-17T18:18:28.280Z,23.77
2019-03-17T18:20:02.612Z,24.05
2019-03-17T18:21:37.119Z,16.60
2019-03-17T18:23:17.761Z,10.75
2019-03-17T18:24:49.005Z,10.32
2019-03-17T18:26:23.363Z,30.35
2019-03-17T18:27:57.700Z,33.53
2019-03-17T18:29:33.501Z,37.23
2019-03-17T18:31:07.818Z,73.92
2019-03-17T18:32:42.121Z,67.85
2019-03-17T18:34:16.412Z,61.05
2019-03-17T18:35:50.633Z,57.35
2019-03-17T18:37:24.884Z,51.90
2019-03-17T18:38:59.113Z,49.27
2019-03-17T18:40:33.460Z,38.63
2019-03-17T18:42:07.754Z,44.18
2019-03-17T18:43:42.077Z,38.30
2019-03-17T18:45:30.839Z,38.48
2019-03-17T18:47:05.145Z,38.30
2019-03-17T18:48:39.466Z,39.58
2019-03-17T18:50:20.283Z,55.12
2019-03-17T18:51:51.187Z,45.92
2019-03-17T18:53:25.408Z,49.45
2019-03-17T18:54:59.709Z,55.08
2019-03-17T18:56:33.963Z,58.08
2019-03-17T18:58:09.895Z,63.23
2019-03-17T18:59:44.317Z,45.83
2019-03-17T19:01:19.239Z,50.98
2019-03-17T19:02:53.551Z,53.20
2019-03-17T19:04:27.781Z,44.45
2019-03-17T19:06:02.028Z,49.05
2019-03-17T19:07:36.395Z,49.98
2019-03-17T19:09:10.703Z,47.95
2019-03-17T19:10:45.031Z,50.55
2019-03-17T19:12:19.334Z,38.13
2019-03-17T19:13:53.735Z,42.70
2019-03-17T19:15:28.051Z,61.42
2019-03-17T19:17:02.352Z,67.53
2019-03-17T19:18:36.717Z,45.85
2019-03-17T19:20:15.996Z,35.15
2019-03-17T19:21:50.311Z,29.75
2019-03-17T19:23:24.620Z,29.65
2019-03-17T19:24:58.957Z,31.02
2019-03-17T19:26:33.371Z,30.90
2019-03-17T19:28:07.594Z,27.67
2019-03-17T19:29:41.917Z,28.35
2019-03-17T19:31:16.893Z,30.77
2019-03-17T19:32:51.203Z,30.72
2019-03-17T19:34:25.505Z,27.40
2019-03-17T19:35:59.735Z,28.27
2019-03-17T19:37:34.033Z,33.35
2019-03-17T19:39:08.271Z,31.97
2019-03-17T19:40:42.563Z,33.53
2019-03-17T19:42:16.859Z,34.63
2019-03-17T19:43:51.218Z,40.75
2019-03-17T19:45:25.483Z,39.98
2019-03-17T19:46:59.710Z,38.85
2019-03-17T19:48:33.931Z,39.48
2019-03-17T19:50:16.525Z,32.17
2019-03-17T19:51:50.841Z,17.23
2019-03-17T19:53:25.073Z,18.95
2019-03-17T19:54:59.390Z,44.33
2019-03-17T19:56:33.652Z,56.28
2019-03-17T19:58:07.894Z,54.45
2019-03-17T19:59:42.219Z,50.73
2019-03-17T20:01:16.534Z,50.45
2019-03-17T20:02:50.820Z,31.05
2019-03-17T20:04:30.815Z,20.45
2019-03-17T20:06:02.579Z,11.93
2019-03-17T20:07:36.815Z,12.33
2019-03-17T20:09:11.186Z,9.58
2019-03-17T20:10:45.483Z,9.45
2019-03-17T20:12:19.793Z,10.65
2019-03-17T20:13:54.082Z,39.25
2019-03-17T20:15:28.287Z,32.78
2019-03-17T20:17:04.008Z,33.73
2019-03-17T20:18:41.251Z,35.55
2019-03-17T20:20:15.059Z,29.50
2019-03-17T20:21:49.362Z,28.23
2019-03-17T20:23:23.741Z,47.00
2019-03-17T20:24:57.960Z,47.48
2019-03-17T20:26:32.251Z,12.50
2019-03-17T20:28:06.854Z,13.32
2019-03-17T20:29:41.146Z,11.18
2019-03-17T20:31:15.449Z,10.05
2019-03-17T20:32:49.679Z,8.98
2019-03-17T20:34:23.936Z,8.38
2019-03-17T20:35:58.214Z,7.85
2019-03-17T20:37:33.965Z,8.23
2019-03-17T20:39:08.258Z,9.15
2019-03-17T20:40:42.499Z,8.63
2019-03-17T20:42:16.705Z,8.75
2019-03-17T20:43:50.982Z,10.32
2019-03-17T20:45:25.218Z,10.03
2019-03-17T20:46:59.511Z,9.18